Terminal Aerodrome Forecast
Issued by NWS Charleston, WV

Current Version | Previous Version | Text Only | Print | Product List | Glossary Off
Versions: 1 2 3 4 5 6 7 8 9 10 11 12 13 14 15 16 17 18 19 20 21 22 23 24 25

055
FTUS41 KRLX 021457 AAA
TAFHTS
TAF AMD
KHTS 021457Z 0215/0312 23007KT P6SM BKN050
     FM022200 24009KT P6SM -SHRA VCTS OVC050CB
     FM030600 VRB03KT 4SM BR OVC012=

USA.gov is the U.S. government's official web portal to all federal, state and local government web resources and services.